大阪市立科学館学芸員 江越航のホームページ  大阪市立科学館 学芸員

 江越 航のホームページ

大阪市立科学館 屋上ライブカメラ

現在の科学館上空の様子
ライブカメラ

環境データ

過去24時間の環境変化
環境トレンド
凡例
過去1週間の環境変化
気象データ

数値計算データ(NOAA)

海面更正気圧 地表付近の風
海面更正気圧 地表付近の風
850hPa面の温度 850hPa面の相対湿度
850hPa面の温度 850hPa面の相対湿度

定時航空実況気象通報式(METAR)

大阪空港 定時航空実況気象通報式
29日20時00分(JST)
RJOO 291100Z VRB02KT 9999 FEW030 09/04 Q1008 RMK 1CU030 A2978
CU 積雲
雲量 :1/8
雲底高度 :3000 feet

関西国際空港 定時航空実況気象通報式
29日21時30分(JST)
RJBB 291230Z 30016KT 9999 FEW025 10/03 Q1009 NOSIG

気象庁XML 受信データ

大阪府府県天気予報
2020-01-29T17:00:00+09:00
今夜 くもり 夜のはじめ頃 晴れ

府県天気概況
2020-01-29T16:32:00+09:00
 大阪府は、寒気や湿った空気の影響でおおむね曇りとなっています。

 29日の大阪府は、寒気や湿った空気の影響でおおむね曇る見込みです。

 30日の大阪府は、冬型の気圧配置となり、おおむね曇るでしょう。夜は雨の降る所がある見込みです。

【近畿地方】
 近畿地方は、寒気や湿った空気の影響でおおむね曇り、雨の降っている所があります。

 29日の近畿地方は、寒気や湿った空気の影響でおおむね曇り、雨の降る所があるでしょう。北部では雷を伴う所がある見込みです。

 30日の近畿地方は、冬型の気圧配置となるため、北部では断続的に雨が降り、雷を伴う所があるでしょう。中部や南部ではおおむね曇り、雷を伴い、雨か雪の降る所がある見込みです。